Weather observations for the past three days for
Mount Shasta
Metric (Imperial)
Date Time (pdt) Wind (kph) Vis. (km) Weather Sky Cond. Temperature (ºC) Relative Humidity Wind Chill (°C) Heat Index (°C) Pressure Precipitation (cm)
Air Dwpt 6 hour altimeter (cm) sea level (mb) 1 hr 3 hr 6 hr
Max. Min.
02 23:56 Calm 16.09 A Few Clouds FEW080 10 5 71% 76.05 1013.7
02 22:56 Calm 16.09 A Few Clouds FEW080 10.6 6.1 21.1 10.6 74% 76.05 1013.9
02 21:56 Calm 16.09 Fair CLR 12.2 5.6 64% 76.05 1013.7
02 20:56 Calm 16.09 Fair CLR 13.9 5 55% 76 1012.9
02 19:56 Calm 16.09 Fair CLR 17.2 4.4 43% 75.92 1012.0
02 18:56 Calm 16.09 Fair CLR 18.3 5 42% 75.9 1011.9
02 17:56 Calm 16.09 Fair CLR 20 4.4 36% 75.9 1011.9
02 16:56 Calm 16.09 A Few Clouds FEW075 21.1 4.4 22.8 18.9 34% 75.9 1011.9
02 15:56 Calm 16.09 Fair CLR 21.1 4.4 34% 75.95 1012.6
02 14:56 Calm 16.09 Fair CLR 21.7 3.9 31% 76 1013.2
02 13:56 Calm 16.09 Partly Cloudy SCT070 21.7 4.4 32% 76.02 1013.5
02 12:56 Calm 16.09 A Few Clouds FEW070 21.1 4.4 34% 76.05 1013.8
02 11:56 Vrbl 6 16.09 Fair CLR 20.6 5.6 38% 76.07 1014.0
02 10:56 Calm 16.09 NULL NULL 18.9 8.3 18.9 7.8 50% 76.07 1014.2
02 09:56 Calm 16.09 Fair CLR 16.1 10.6 70% 76.05 1014.0
02 08:56 Calm 16.09 Fair CLR 15.6 10.6 72% 76.02 1013.5
02 07:56 Calm 16.09 Mostly Cloudy BKN039 12.2 8.9 80% 76.05 1013.6
02 06:56 Calm 16.09 Fair CLR 8.9 7.2 89% 76 1013.2
02 04:56 Calm 16.09 Fair CLR 7.8 6.1 10 7.2 89% 76.02 1013.3
02 03:56 Calm 16.09 Fair CLR 7.2 5 86% 76.02 1013.5
02 02:56 Calm 16.09 Fair CLR 7.2 5 86% 76.07 1014.0
02 01:56 Calm 16.09 Fair CLR 7.8 4.4 79% 76.1 1014.4
02 00:56 Calm 16.09 Fair CLR 7.8 3.9 77% 76.12 1014.7
01 23:56 Calm 16.09 Fair CLR 8.3 3.9 74% 76.12 1014.7
01 22:56 Calm 16.09 Fair CLR 10 3.3 21.7 9.4 63% 76.12 1014.5
01 21:56 Calm 16.09 Fair CLR 12.2 3.9 57% 76.1 1014.4
01 20:56 Calm 16.09 Fair CLR 13.9 5 55% 76.07 1014.0
01 19:56 Calm 16.09 Fair CLR 18.9 3.3 36% 76.05 1013.6
01 18:56 Calm 16.09 Fair CLR 20.6 2.2 30% 76.02 1013.9
01 17:56 Calm 16.09 Fair CLR 21.7 3.3 30% 76.05 1014.3
01 16:56 Calm 16.09 Fair CLR 21.7 2.2 23.3 20.6 28% 76.07 1014.6
01 15:56 Calm 16.09 Fair CLR 22.2 2.2 27% 76.15 1015.2
01 14:56 Calm 16.09 Fair CLR 22.2 1.7 26% 76.2 1016.1
01 13:56 Calm 16.09 Fair CLR 22.2 1.7 26% 76.23 1016.2
01 12:56 Calm 16.09 Fair CLR 22.8 2.8 27% 76.23 1016.2
01 11:56 Calm 16.09 Fair CLR 22.2 2.8 28% 76.25 1016.4
01 10:56 Calm 16.09 Fair CLR 20.6 2.2 21.1 4.4 30% 76.25 1016.6
01 09:56 Vrbl 6 16.09 Fair CLR 18.9 3.3 36% 76.25 1016.4
01 08:56 Calm 16.09 Fair CLR 16.1 7.2 56% 76.28 1016.7
01 07:56 Calm 16.09 Fair CLR 10.6 5 69% 76.28 1016.9
01 06:56 Calm 16.09 Fair CLR 5.6 2.8 82% 76.28 1017.0
01 05:56 Calm 16.09 Fair CLR 4.4 2.2 86% 76.25 1016.7
01 04:56 Calm 16.09 Fair CLR 5 2.2 10.6 4.4 82% 76.25 1016.6
01 03:56 Calm 16.09 Fair CLR 5.6 2.8 82% 76.25 1016.5
01 02:56 Calm 16.09 Fair CLR 5.6 2.8 82% 76.25 1016.5
01 01:56 Calm 16.09 Fair CLR 6.7 2.8 76% 76.25 1016.7
01 00:56 Calm 16.09 Fair CLR 7.2 3.3 77% 76.28 1016.8
30 23:56 Calm 16.09 Fair CLR 8.9 3.3 68% 76.25 1016.4
30 22:56 Calm 16.09 Fair CLR 9.4 3.9 25 9.4 69% 76.23 1016.3
30 21:56 Calm 16.09 Mostly Cloudy BKN100 12.2 3.9 57% 76.23 1016.2
30 20:56 Calm 16.09 Partly Cloudy SCT100 15 3.9 48% 76.15 1015.3
30 19:56 Calm 16.09 Fair CLR 18.9 1.7 32% 76.1 1014.6
30 18:56 Vrbl 6 16.09 Fair CLR 22.2 -1.1 21% 76.07 1014.5
30 17:56 W 7 16.09 Fair CLR 23.3 1.7 24% 76.07 1014.4
30 16:56 Vrbl 6 16.09 Fair CLR 23.3 1.7 25 18.3 24% 76.1 1014.5
30 15:56 Calm 16.09 A Few Clouds FEW090 23.3 2.2 25% 76.12 1015.0
30 14:56 Calm 16.09 Fair CLR 24.4 1.1 22% 25 76.17 1015.6
30 13:56 NW 6 16.09 Fair CLR 22.2 1.1 25% 76.23 1016.4
30 12:56 Calm 16.09 Fair CLR 22.2 2.8 28% 76.28 1016.8
30 11:56 Calm 16.09 Fair CLR 21.1 3.3 31% 76.33 1017.4
30 10:56 Vrbl 7 16.09 Fair CLR 19.4 3.9 19.4 3.9 36% 76.35 1018.0
30 09:56 Vrbl 6 16.09 Fair CLR 17.2 3.3 40% 76.38 1018.3
30 07:56 Calm 16.09 Fair CLR 10 2.8 61% 76.43 1019.4
30 06:56 Calm 16.09 Fair CLR 4.4 1.7 83% 76.4 1019.2
30 05:56 Calm 16.09 Fair CLR 3.9 1.1 82% 76.38 1018.9
30 04:56 NE 6 16.09 Fair CLR 3.9 1.1 10.6 3.9 82% 76.4 1019.0
30 03:56 Calm 16.09 Fair CLR 5 1.1 76% 76.4 1019.0
30 02:56 Calm 16.09 Fair CLR 5 1.7 79% 76.38 1018.6
30 01:56 Calm 16.09 Fair CLR 5.6 1.7 76% 76.4 1018.9
30 00:56 Calm 16.09 Fair CLR 7.2 2.2 71% 76.4 1018.8
Date Time (pdt) Wind (kph) Vis. (km) Weather Sky Cond. Air Dwpt Max. Min. Relative Humidity Wind Chill (°C) Heat Index (°C) altimeter (cm) sea level (mb) 1 hr 3 hr 6 hr
6 hour
Temperature (ºC) Pressure Precipitation (cm)